Terminal Aerodrome Forecast
Issued by NWS

Home | Current Version | Previous Version | Text Only | Print | Product List | Glossary On
Versions: 1 2 3 4 5 6 7 8 9 10 11 12 13 14 15 16 17 18 19 20 21 22 23 24
302
FTUS43 KDVN 030930 AAC
TAFCID
TAF AMD
KCID 030930Z 0310/0406 22012KT 5SM -RASN BR OVC006
     FM031100 31014G21KT 1 1/2SM -SN BR OVC006
      TEMPO 0311/0312 1/2SM SN FZFG
     FM031400 32018G26KT 6SM -SHSN OVC008
     FM031600 31018G28KT P6SM OVC012
     FM031900 29015G25KT P6SM BKN020=

USA.gov is the U.S. government's official web portal to all federal, state and local government web resources and services.